sensor_id;sensor_type;location;lat;lon;timestamp;temperature;humidity
48806;DHT22;34625;47.176;27.548;2022-09-27T00:02:09;25.10;53.50
48806;DHT22;34625;47.176;27.548;2022-09-27T00:04:35;25.10;53.50
48806;DHT22;34625;47.176;27.548;2022-09-27T00:07:01;25.20;53.50
48806;DHT22;34625;47.176;27.548;2022-09-27T00:09:27;25.10;53.50
48806;DHT22;34625;47.176;27.548;2022-09-27T00:11:53;25.10;53.60
48806;DHT22;34625;47.176;27.548;2022-09-27T00:14:19;25.10;53.70
48806;DHT22;34625;47.176;27.548;2022-09-27T00:16:46;25.00;53.60
48806;DHT22;34625;47.176;27.548;2022-09-27T00:19:17;25.00;53.60
48806;DHT22;34625;47.176;27.548;2022-09-27T00:21:44;25.00;53.60
48806;DHT22;34625;47.176;27.548;2022-09-27T00:24:19;25.10;53.60
48806;DHT22;34625;47.176;27.548;2022-09-27T00:26:46;25.00;53.60
48806;DHT22;34625;47.176;27.548;2022-09-27T00:29:14;25.00;53.60
48806;DHT22;34625;47.176;27.548;2022-09-27T00:31:41;25.10;53.70
48806;DHT22;34625;47.176;27.548;2022-09-27T00:34:20;25.00;53.70
48806;DHT22;34625;47.176;27.548;2022-09-27T00:36:47;25.00;53.70
48806;DHT22;34625;47.176;27.548;2022-09-27T00:39:14;25.00;53.70
48806;DHT22;34625;47.176;27.548;2022-09-27T00:41:40;24.90;53.90
48806;DHT22;34625;47.176;27.548;2022-09-27T00:52:20;24.90;54.00
48806;DHT22;34625;47.176;27.548;2022-09-27T00:54:53;25.00;54.10
48806;DHT22;34625;47.176;27.548;2022-09-27T00:57:22;25.00;54.20
48806;DHT22;34625;47.176;27.548;2022-09-27T01:00:00;24.90;54.20
48806;DHT22;34625;47.176;27.548;2022-09-27T01:02:28;25.00;54.20
48806;DHT22;34625;47.176;27.548;2022-09-27T01:04:54;25.00;54.20
48806;DHT22;34625;47.176;27.548;2022-09-27T01:07:21;25.00;54.10
48806;DHT22;34625;47.176;27.548;2022-09-27T01:09:48;25.00;54.20
48806;DHT22;34625;47.176;27.548;2022-09-27T01:17:48;24.80;54.10
48806;DHT22;34625;47.176;27.548;2022-09-27T01:45:09;24.80;54.60
48806;DHT22;34625;47.176;27.548;2022-09-27T01:48:06;24.80;54.70
48806;DHT22;34625;47.176;27.548;2022-09-27T01:51:01;24.80;54.70
48806;DHT22;34625;47.176;27.548;2022-09-27T01:53:42;24.90;54.80
48806;DHT22;34625;47.176;27.548;2022-09-27T01:56:38;24.80;54.70
48806;DHT22;34625;47.176;27.548;2022-09-27T01:59:18;24.80;54.80
48806;DHT22;34625;47.176;27.548;2022-09-27T02:01:54;24.80;54.80
48806;DHT22;34625;47.176;27.548;2022-09-27T02:04:31;24.80;54.90
48806;DHT22;34625;47.176;27.548;2022-09-27T02:07:21;24.70;55.10
48806;DHT22;34625;47.176;27.548;2022-09-27T02:10:12;24.70;55.00
48806;DHT22;34625;47.176;27.548;2022-09-27T02:12:55;24.70;55.00
48806;DHT22;34625;47.176;27.548;2022-09-27T02:15:24;24.60;54.90
48806;DHT22;34625;47.176;27.548;2022-09-27T02:18:16;24.70;55.00
48806;DHT22;34625;47.176;27.548;2022-09-27T02:20:49;24.80;55.10
48806;DHT22;34625;47.176;27.548;2022-09-27T02:23:38;24.60;55.10
48806;DHT22;34625;47.176;27.548;2022-09-27T02:26:19;24.60;55.10
48806;DHT22;34625;47.176;27.548;2022-09-27T02:29:06;24.60;55.20
48806;DHT22;34625;47.176;27.548;2022-09-27T02:31:41;24.60;55.20
48806;DHT22;34625;47.176;27.548;2022-09-27T02:34:17;24.70;55.30
48806;DHT22;34625;47.176;27.548;2022-09-27T02:36:44;24.80;55.30
48806;DHT22;34625;47.176;27.548;2022-09-27T02:39:10;24.70;55.30
48806;DHT22;34625;47.176;27.548;2022-09-27T02:41:37;24.60;55.30
48806;DHT22;34625;47.176;27.548;2022-09-27T02:44:06;24.80;55.40
48806;DHT22;34625;47.176;27.548;2022-09-27T03:04:14;24.50;55.50
48806;DHT22;34625;47.176;27.548;2022-09-27T03:06:44;24.50;55.60
48806;DHT22;34625;47.176;27.548;2022-09-27T03:09:40;24.40;55.60
48806;DHT22;34625;47.176;27.548;2022-09-27T03:12:03;24.60;55.80
48806;DHT22;34625;47.176;27.548;2022-09-27T03:14:30;24.50;55.80
48806;DHT22;34625;47.176;27.548;2022-09-27T03:17:07;24.50;55.80
48806;DHT22;34625;47.176;27.548;2022-09-27T03:20:02;24.50;55.80
48806;DHT22;34625;47.176;27.548;2022-09-27T03:22:43;24.50;55.80
48806;DHT22;34625;47.176;27.548;2022-09-27T03:25:10;24.50;55.90
48806;DHT22;34625;47.176;27.548;2022-09-27T03:27:36;24.50;55.80
48806;DHT22;34625;47.176;27.548;2022-09-27T03:30:03;24.60;55.80
48806;DHT22;34625;47.176;27.548;2022-09-27T03:32:31;24.50;55.80
48806;DHT22;34625;47.176;27.548;2022-09-27T03:35:23;24.60;55.70
48806;DHT22;34625;47.176;27.548;2022-09-27T03:37:49;24.60;55.60
48806;DHT22;34625;47.176;27.548;2022-09-27T03:40:15;24.50;55.50
48806;DHT22;34625;47.176;27.548;2022-09-27T03:42:41;24.70;55.50
48806;DHT22;34625;47.176;27.548;2022-09-27T03:45:07;24.60;55.30
48806;DHT22;34625;47.176;27.548;2022-09-27T03:47:34;24.50;55.30
48806;DHT22;34625;47.176;27.548;2022-09-27T03:50:04;24.50;55.60
48806;DHT22;34625;47.176;27.548;2022-09-27T03:52:31;24.40;55.70
48806;DHT22;34625;47.176;27.548;2022-09-27T03:54:57;24.40;55.90
48806;DHT22;34625;47.176;27.548;2022-09-27T03:57:23;24.20;56.00
48806;DHT22;34625;47.176;27.548;2022-09-27T03:59:49;24.40;56.30
48806;DHT22;34625;47.176;27.548;2022-09-27T04:02:42;24.20;56.40
48806;DHT22;34625;47.176;27.548;2022-09-27T04:05:29;24.20;56.40
48806;DHT22;34625;47.176;27.548;2022-09-27T04:08:01;24.30;56.50
48806;DHT22;34625;47.176;27.548;2022-09-27T04:10:30;24.20;56.20
48806;DHT22;34625;47.176;27.548;2022-09-27T04:12:56;24.40;56.10
48806;DHT22;34625;47.176;27.548;2022-09-27T04:15:24;24.30;55.90
48806;DHT22;34625;47.176;27.548;2022-09-27T04:17:51;24.50;55.90
48806;DHT22;34625;47.176;27.548;2022-09-27T04:20:29;24.50;55.80
48806;DHT22;34625;47.176;27.548;2022-09-27T04:22:57;24.50;55.70
48806;DHT22;34625;47.176;27.548;2022-09-27T04:25:23;24.50;55.70
48806;DHT22;34625;47.176;27.548;2022-09-27T04:27:50;24.40;55.60
48806;DHT22;34625;47.176;27.548;2022-09-27T04:30:21;24.50;55.80
48806;DHT22;34625;47.176;27.548;2022-09-27T04:33:06;24.50;55.90
48806;DHT22;34625;47.176;27.548;2022-09-27T04:35:51;24.40;55.90
48806;DHT22;34625;47.176;27.548;2022-09-27T04:38:38;24.40;55.90
48806;DHT22;34625;47.176;27.548;2022-09-27T04:41:06;24.40;56.00
48806;DHT22;34625;47.176;27.548;2022-09-27T04:43:35;24.30;56.10
48806;DHT22;34625;47.176;27.548;2022-09-27T04:46:03;24.30;56.20
48806;DHT22;34625;47.176;27.548;2022-09-27T04:48:29;24.20;56.30
48806;DHT22;34625;47.176;27.548;2022-09-27T04:50:57;24.20;56.30
48806;DHT22;34625;47.176;27.548;2022-09-27T04:53:23;24.20;56.40
48806;DHT22;34625;47.176;27.548;2022-09-27T04:55:52;24.20;56.40
48806;DHT22;34625;47.176;27.548;2022-09-27T04:58:20;24.30;56.50
48806;DHT22;34625;47.176;27.548;2022-09-27T05:00:47;24.30;56.40
48806;DHT22;34625;47.176;27.548;2022-09-27T05:03:39;24.20;56.40
48806;DHT22;34625;47.176;27.548;2022-09-27T05:06:12;24.30;56.50
48806;DHT22;34625;47.176;27.548;2022-09-27T05:08:39;24.30;56.60
48806;DHT22;34625;47.176;27.548;2022-09-27T05:11:17;24.30;56.60
48806;DHT22;34625;47.176;27.548;2022-09-27T05:14:04;24.30;56.50
48806;DHT22;34625;47.176;27.548;2022-09-27T05:16:35;24.20;56.40
48806;DHT22;34625;47.176;27.548;2022-09-27T05:19:20;24.40;54.40
48806;DHT22;34625;47.176;27.548;2022-09-27T05:22:06;24.40;53.70
48806;DHT22;34625;47.176;27.548;2022-09-27T05:24:33;24.40;53.80
48806;DHT22;34625;47.176;27.548;2022-09-27T05:27:00;24.40;54.70
48806;DHT22;34625;47.176;27.548;2022-09-27T05:29:47;24.40;54.80
48806;DHT22;34625;47.176;27.548;2022-09-27T05:32:18;24.50;57.10
48806;DHT22;34625;47.176;27.548;2022-09-27T05:34:49;24.50;55.60
48806;DHT22;34625;47.176;27.548;2022-09-27T05:37:18;24.60;54.30
48806;DHT22;34625;47.176;27.548;2022-09-27T05:39:45;24.60;54.70
48806;DHT22;34625;47.176;27.548;2022-09-27T05:42:12;24.60;54.90
48806;DHT22;34625;47.176;27.548;2022-09-27T05:44:41;24.60;57.30
48806;DHT22;34625;47.176;27.548;2022-09-27T05:47:07;24.60;59.50
48806;DHT22;34625;47.176;27.548;2022-09-27T05:49:33;24.60;58.10
48806;DHT22;34625;47.176;27.548;2022-09-27T05:52:02;24.80;58.10
48806;DHT22;34625;47.176;27.548;2022-09-27T05:54:28;24.80;59.20
48806;DHT22;34625;47.176;27.548;2022-09-27T05:56:57;24.70;58.80
48806;DHT22;34625;47.176;27.548;2022-09-27T05:59:44;24.70;58.50
48806;DHT22;34625;47.176;27.548;2022-09-27T06:02:19;24.70;58.40
48806;DHT22;34625;47.176;27.548;2022-09-27T06:05:04;24.70;58.40
48806;DHT22;34625;47.176;27.548;2022-09-27T06:07:39;24.80;58.40
48806;DHT22;34625;47.176;27.548;2022-09-27T06:10:12;24.80;58.30
48806;DHT22;34625;47.176;27.548;2022-09-27T06:12:38;24.80;58.20
48806;DHT22;34625;47.176;27.548;2022-09-27T06:15:12;24.80;58.30
48806;DHT22;34625;47.176;27.548;2022-09-27T06:17:42;24.90;58.40
48806;DHT22;34625;47.176;27.548;2022-09-27T06:20:14;24.90;58.40
48806;DHT22;34625;47.176;27.548;2022-09-27T06:22:42;24.80;58.50
48806;DHT22;34625;47.176;27.548;2022-09-27T06:25:08;24.90;58.20
48806;DHT22;34625;47.176;27.548;2022-09-27T06:27:49;25.00;56.80
48806;DHT22;34625;47.176;27.548;2022-09-27T06:30:22;25.10;54.80
48806;DHT22;34625;47.176;27.548;2022-09-27T06:33:16;25.40;54.20
48806;DHT22;34625;47.176;27.548;2022-09-27T06:35:49;25.40;53.00
48806;DHT22;34625;47.176;27.548;2022-09-27T06:38:17;25.50;56.40
48806;DHT22;34625;47.176;27.548;2022-09-27T06:40:55;25.60;56.70
48806;DHT22;34625;47.176;27.548;2022-09-27T06:43:40;25.50;57.00
48806;DHT22;34625;47.176;27.548;2022-09-27T06:46:37;25.40;57.30
48806;DHT22;34625;47.176;27.548;2022-09-27T06:49:10;25.50;57.20
48806;DHT22;34625;47.176;27.548;2022-09-27T06:51:38;25.40;57.40
48806;DHT22;34625;47.176;27.548;2022-09-27T06:54:04;25.40;57.50
48806;DHT22;34625;47.176;27.548;2022-09-27T06:56:31;25.40;57.80
48806;DHT22;34625;47.176;27.548;2022-09-27T06:58:57;25.50;57.60
48806;DHT22;34625;47.176;27.548;2022-09-27T07:01:43;25.50;57.40
48806;DHT22;34625;47.176;27.548;2022-09-27T07:04:25;25.50;57.10
48806;DHT22;34625;47.176;27.548;2022-09-27T07:07:03;25.40;57.10
48806;DHT22;34625;47.176;27.548;2022-09-27T07:09:36;25.60;57.20
48806;DHT22;34625;47.176;27.548;2022-09-27T07:12:05;25.60;57.10
48806;DHT22;34625;47.176;27.548;2022-09-27T07:14:31;25.50;56.60
48806;DHT22;34625;47.176;27.548;2022-09-27T07:17:00;25.60;56.60
48806;DHT22;34625;47.176;27.548;2022-09-27T07:19:31;25.60;56.20
48806;DHT22;34625;47.176;27.548;2022-09-27T07:21:58;25.50;56.60
48806;DHT22;34625;47.176;27.548;2022-09-27T07:24:24;25.50;56.60
48806;DHT22;34625;47.176;27.548;2022-09-27T07:26:50;25.60;56.50
48806;DHT22;34625;47.176;27.548;2022-09-27T07:29:19;25.60;56.30
48806;DHT22;34625;47.176;27.548;2022-09-27T07:31:46;25.60;56.70
48806;DHT22;34625;47.176;27.548;2022-09-27T07:34:13;25.60;56.60
48806;DHT22;34625;47.176;27.548;2022-09-27T07:36:39;25.60;56.70
48806;DHT22;34625;47.176;27.548;2022-09-27T07:39:05;25.60;56.60
48806;DHT22;34625;47.176;27.548;2022-09-27T07:41:33;25.60;56.50
48806;DHT22;34625;47.176;27.548;2022-09-27T07:43:59;25.60;56.60
48806;DHT22;34625;47.176;27.548;2022-09-27T07:46:25;25.60;56.70
48806;DHT22;34625;47.176;27.548;2022-09-27T07:48:53;25.60;56.70
48806;DHT22;34625;47.176;27.548;2022-09-27T07:51:38;25.60;57.10
48806;DHT22;34625;47.176;27.548;2022-09-27T07:54:23;25.70;57.00
48806;DHT22;34625;47.176;27.548;2022-09-27T07:57:06;25.60;56.90
48806;DHT22;34625;47.176;27.548;2022-09-27T07:59:40;25.60;56.80
48806;DHT22;34625;47.176;27.548;2022-09-27T08:02:13;25.60;56.40
48806;DHT22;34625;47.176;27.548;2022-09-27T08:04:40;25.60;56.30
48806;DHT22;34625;47.176;27.548;2022-09-27T08:07:09;25.60;56.50
48806;DHT22;34625;47.176;27.548;2022-09-27T08:09:36;25.60;55.70
48806;DHT22;34625;47.176;27.548;2022-09-27T08:12:02;25.60;56.40
48806;DHT22;34625;47.176;27.548;2022-09-27T08:14:30;25.60;56.40
48806;DHT22;34625;47.176;27.548;2022-09-27T08:16:56;25.60;56.30
48806;DHT22;34625;47.176;27.548;2022-09-27T08:19:28;25.60;56.30
48806;DHT22;34625;47.176;27.548;2022-09-27T08:22:35;25.60;56.20
48806;DHT22;34625;47.176;27.548;2022-09-27T08:25:14;25.60;55.90
48806;DHT22;34625;47.176;27.548;2022-09-27T08:28:02;25.60;56.10
48806;DHT22;34625;47.176;27.548;2022-09-27T08:30:44;25.60;56.10
48806;DHT22;34625;47.176;27.548;2022-09-27T08:33:10;25.60;56.00
48806;DHT22;34625;47.176;27.548;2022-09-27T08:35:36;25.60;56.10
48806;DHT22;34625;47.176;27.548;2022-09-27T08:38:03;25.60;56.20
48806;DHT22;34625;47.176;27.548;2022-09-27T08:43:13;25.60;56.20
48806;DHT22;34625;47.176;27.548;2022-09-27T08:48:15;25.50;56.00
48806;DHT22;34625;47.176;27.548;2022-09-27T08:50:44;25.50;55.90
48806;DHT22;34625;47.176;27.548;2022-09-27T08:55:53;25.50;55.90
48806;DHT22;34625;47.176;27.548;2022-09-27T08:58:29;25.60;55.90
48806;DHT22;34625;47.176;27.548;2022-09-27T09:00:58;25.50;56.10
48806;DHT22;34625;47.176;27.548;2022-09-27T09:03:32;25.60;55.90
48806;DHT22;34625;47.176;27.548;2022-09-27T09:11:33;25.40;55.90
48806;DHT22;34625;47.176;27.548;2022-09-27T09:26:24;25.40;55.20
48806;DHT22;34625;47.176;27.548;2022-09-27T09:28:58;25.30;55.70
48806;DHT22;34625;47.176;27.548;2022-09-27T09:34:36;25.30;55.50
48806;DHT22;34625;47.176;27.548;2022-09-27T09:40:00;25.30;55.70
48806;DHT22;34625;47.176;27.548;2022-09-27T09:42:42;25.30;55.60
48806;DHT22;34625;47.176;27.548;2022-09-27T09:45:25;25.30;55.60
48806;DHT22;34625;47.176;27.548;2022-09-27T09:50:39;25.40;56.50
48806;DHT22;34625;47.176;27.548;2022-09-27T09:56:02;25.40;56.60
48806;DHT22;34625;47.176;27.548;2022-09-27T09:58:35;25.50;57.00
48806;DHT22;34625;47.176;27.548;2022-09-27T10:04:22;25.90;58.90
48806;DHT22;34625;47.176;27.548;2022-09-27T10:06:50;26.20;60.00
48806;DHT22;34625;47.176;27.548;2022-09-27T10:09:23;26.30;59.30
48806;DHT22;34625;47.176;27.548;2022-09-27T10:12:09;26.10;58.70
48806;DHT22;34625;47.176;27.548;2022-09-27T10:14:35;26.20;56.90
48806;DHT22;34625;47.176;27.548;2022-09-27T10:17:08;26.10;56.60
48806;DHT22;34625;47.176;27.548;2022-09-27T10:19:37;26.10;56.50
48806;DHT22;34625;47.176;27.548;2022-09-27T10:24:56;26.00;60.10
48806;DHT22;34625;47.176;27.548;2022-09-27T10:27:58;26.20;63.10
48806;DHT22;34625;47.176;27.548;2022-09-27T10:30:34;26.10;60.10
48806;DHT22;34625;47.176;27.548;2022-09-27T10:33:16;26.20;57.20
48806;DHT22;34625;47.176;27.548;2022-09-27T10:35:51;26.10;53.50
48806;DHT22;34625;47.176;27.548;2022-09-27T10:38:35;26.20;52.50
48806;DHT22;34625;47.176;27.548;2022-09-27T10:41:37;26.10;54.00
48806;DHT22;34625;47.176;27.548;2022-09-27T10:46:55;26.30;55.60
48806;DHT22;34625;47.176;27.548;2022-09-27T10:49:40;26.30;56.10
48806;DHT22;34625;47.176;27.548;2022-09-27T10:52:27;26.60;54.90
48806;DHT22;34625;47.176;27.548;2022-09-27T10:54:56;26.40;55.10
48806;DHT22;34625;47.176;27.548;2022-09-27T10:57:26;26.50;55.90
48806;DHT22;34625;47.176;27.548;2022-09-27T11:00:21;26.50;52.30
48806;DHT22;34625;47.176;27.548;2022-09-27T11:02:52;26.40;52.40
48806;DHT22;34625;47.176;27.548;2022-09-27T11:07:53;26.30;51.50
48806;DHT22;34625;47.176;27.548;2022-09-27T11:10:34;26.40;51.00
48806;DHT22;34625;47.176;27.548;2022-09-27T11:13:12;26.10;50.90
48806;DHT22;34625;47.176;27.548;2022-09-27T11:23:46;26.20;49.90
48806;DHT22;34625;47.176;27.548;2022-09-27T11:26:40;26.30;50.00
48806;DHT22;34625;47.176;27.548;2022-09-27T11:38:24;26.10;50.30
48806;DHT22;34625;47.176;27.548;2022-09-27T11:43:58;26.00;50.70
48806;DHT22;34625;47.176;27.548;2022-09-27T11:46:31;25.80;49.80
48806;DHT22;34625;47.176;27.548;2022-09-27T12:04:08;26.80;52.50
48806;DHT22;34625;47.176;27.548;2022-09-27T12:06:44;26.80;52.80
48806;DHT22;34625;47.176;27.548;2022-09-27T12:09:19;26.90;55.00
48806;DHT22;34625;47.176;27.548;2022-09-27T12:11:56;27.10;54.40
48806;DHT22;34625;47.176;27.548;2022-09-27T12:14:42;27.10;50.00
48806;DHT22;34625;47.176;27.548;2022-09-27T12:17:17;27.10;53.10
48806;DHT22;34625;47.176;27.548;2022-09-27T12:19:50;27.20;52.00
48806;DHT22;34625;47.176;27.548;2022-09-27T12:22:28;27.30;52.40
48806;DHT22;34625;47.176;27.548;2022-09-27T12:24:55;27.50;55.30
48806;DHT22;34625;47.176;27.548;2022-09-27T12:27:44;27.60;54.10
48806;DHT22;34625;47.176;27.548;2022-09-27T12:30:16;27.80;56.00
48806;DHT22;34625;47.176;27.548;2022-09-27T12:32:47;27.80;54.90
48806;DHT22;34625;47.176;27.548;2022-09-27T12:35:16;28.00;53.40
48806;DHT22;34625;47.176;27.548;2022-09-27T12:40:35;28.00;53.20
48806;DHT22;34625;47.176;27.548;2022-09-27T12:43:23;27.90;50.80
48806;DHT22;34625;47.176;27.548;2022-09-27T12:48:46;27.90;50.50
48806;DHT22;34625;47.176;27.548;2022-09-27T12:51:16;27.70;50.60
48806;DHT22;34625;47.176;27.548;2022-09-27T13:02:52;27.50;51.60
48806;DHT22;34625;47.176;27.548;2022-09-27T13:05:53;27.40;51.40
48806;DHT22;34625;47.176;27.548;2022-09-27T13:13:57;27.30;51.80
48806;DHT22;34625;47.176;27.548;2022-09-27T13:16:25;27.20;51.90
48806;DHT22;34625;47.176;27.548;2022-09-27T13:19:00;27.20;51.70
48806;DHT22;34625;47.176;27.548;2022-09-27T13:24:50;27.00;52.10
48806;DHT22;34625;47.176;27.548;2022-09-27T13:27:51;27.20;52.10
48806;DHT22;34625;47.176;27.548;2022-09-27T13:50:16;26.70;52.50
48806;DHT22;34625;47.176;27.548;2022-09-27T13:53:07;26.70;52.50
48806;DHT22;34625;47.176;27.548;2022-09-27T13:55:40;26.60;52.50
48806;DHT22;34625;47.176;27.548;2022-09-27T14:00:43;26.70;52.70
48806;DHT22;34625;47.176;27.548;2022-09-27T14:05:42;26.50;52.80
48806;DHT22;34625;47.176;27.548;2022-09-27T14:08:25;26.50;52.80
48806;DHT22;34625;47.176;27.548;2022-09-27T14:10:52;26.60;52.90
48806;DHT22;34625;47.176;27.548;2022-09-27T14:13:19;26.40;52.90
48806;DHT22;34625;47.176;27.548;2022-09-27T14:15:59;26.40;53.00
48806;DHT22;34625;47.176;27.548;2022-09-27T14:18:28;26.50;53.00
48806;DHT22;34625;47.176;27.548;2022-09-27T14:24:21;26.40;53.20
48806;DHT22;34625;47.176;27.548;2022-09-27T14:26:49;26.30;53.30
48806;DHT22;34625;47.176;27.548;2022-09-27T14:29:21;26.30;53.40
48806;DHT22;34625;47.176;27.548;2022-09-27T14:32:05;26.20;53.60
48806;DHT22;34625;47.176;27.548;2022-09-27T14:35:12;26.20;53.60
48806;DHT22;34625;47.176;27.548;2022-09-27T14:38:01;26.20;53.70
48806;DHT22;34625;47.176;27.548;2022-09-27T14:40:30;26.30;53.80
48806;DHT22;34625;47.176;27.548;2022-09-27T14:42:58;26.20;53.90
48806;DHT22;34625;47.176;27.548;2022-09-27T14:45:38;26.30;53.90
48806;DHT22;34625;47.176;27.548;2022-09-27T14:48:37;26.20;54.00
48806;DHT22;34625;47.176;27.548;2022-09-27T14:53:42;26.20;54.10
48806;DHT22;34625;47.176;27.548;2022-09-27T14:56:13;26.20;54.20
48806;DHT22;34625;47.176;27.548;2022-09-27T14:58:43;26.20;54.20
48806;DHT22;34625;47.176;27.548;2022-09-27T15:01:17;26.20;54.30
48806;DHT22;34625;47.176;27.548;2022-09-27T15:03:46;26.20;54.30
48806;DHT22;34625;47.176;27.548;2022-09-27T15:06:15;26.10;54.30
48806;DHT22;34625;47.176;27.548;2022-09-27T15:08:42;26.20;54.40
48806;DHT22;34625;47.176;27.548;2022-09-27T15:11:12;26.10;54.80
48806;DHT22;34625;47.176;27.548;2022-09-27T15:13:39;26.00;55.60
48806;DHT22;34625;47.176;27.548;2022-09-27T15:16:13;26.10;56.30
48806;DHT22;34625;47.176;27.548;2022-09-27T15:18:44;26.20;54.30
48806;DHT22;34625;47.176;27.548;2022-09-27T15:21:31;26.20;53.80
48806;DHT22;34625;47.176;27.548;2022-09-27T15:23:57;26.40;55.80
48806;DHT22;34625;47.176;27.548;2022-09-27T15:29:02;26.50;54.70
48806;DHT22;34625;47.176;27.548;2022-09-27T15:31:30;26.40;54.00
48806;DHT22;34625;47.176;27.548;2022-09-27T15:33:57;26.50;53.60
48806;DHT22;34625;47.176;27.548;2022-09-27T15:39:39;26.70;52.50
48806;DHT22;34625;47.176;27.548;2022-09-27T15:42:09;26.50;57.50
48806;DHT22;34625;47.176;27.548;2022-09-27T15:52:53;26.40;56.50
48806;DHT22;34625;47.176;27.548;2022-09-27T15:55:24;26.50;56.30
48806;DHT22;34625;47.176;27.548;2022-09-27T15:57:54;26.50;56.90
48806;DHT22;34625;47.176;27.548;2022-09-27T16:00:25;26.60;56.60
48806;DHT22;34625;47.176;27.548;2022-09-27T16:02:51;26.40;56.50
48806;DHT22;34625;47.176;27.548;2022-09-27T16:05:19;26.60;56.40
48806;DHT22;34625;47.176;27.548;2022-09-27T16:07:45;26.40;56.10
48806;DHT22;34625;47.176;27.548;2022-09-27T16:12:40;26.50;55.40
48806;DHT22;34625;47.176;27.548;2022-09-27T16:15:06;26.40;55.30
48806;DHT22;34625;47.176;27.548;2022-09-27T16:17:32;26.40;55.30
48806;DHT22;34625;47.176;27.548;2022-09-27T16:20:03;26.30;55.20
48806;DHT22;34625;47.176;27.548;2022-09-27T16:22:29;26.40;55.20
48806;DHT22;34625;47.176;27.548;2022-09-27T16:24:55;26.50;55.60
48806;DHT22;34625;47.176;27.548;2022-09-27T16:27:25;26.30;55.30
48806;DHT22;34625;47.176;27.548;2022-09-27T16:29:52;26.40;55.70
48806;DHT22;34625;47.176;27.548;2022-09-27T16:32:19;26.30;56.30
48806;DHT22;34625;47.176;27.548;2022-09-27T16:34:46;26.30;56.20
48806;DHT22;34625;47.176;27.548;2022-09-27T16:37:12;26.30;56.10
48806;DHT22;34625;47.176;27.548;2022-09-27T16:39:38;26.30;56.00
48806;DHT22;34625;47.176;27.548;2022-09-27T16:42:05;26.30;56.20
48806;DHT22;34625;47.176;27.548;2022-09-27T16:44:33;26.40;56.10
48806;DHT22;34625;47.176;27.548;2022-09-27T16:47:02;26.40;56.40
48806;DHT22;34625;47.176;27.548;2022-09-27T16:49:28;26.40;56.60
48806;DHT22;34625;47.176;27.548;2022-09-27T16:52:13;26.30;56.60
48806;DHT22;34625;47.176;27.548;2022-09-27T16:54:40;26.30;56.40
48806;DHT22;34625;47.176;27.548;2022-09-27T16:57:07;26.40;56.10
48806;DHT22;34625;47.176;27.548;2022-09-27T16:59:33;26.40;55.00
48806;DHT22;34625;47.176;27.548;2022-09-27T17:02:02;26.30;55.70
48806;DHT22;34625;47.176;27.548;2022-09-27T17:04:31;26.40;56.10
48806;DHT22;34625;47.176;27.548;2022-09-27T17:06:57;26.30;55.60
48806;DHT22;34625;47.176;27.548;2022-09-27T17:09:23;26.30;55.40
48806;DHT22;34625;47.176;27.548;2022-09-27T17:11:49;26.30;54.70
48806;DHT22;34625;47.176;27.548;2022-09-27T17:14:16;26.30;55.00
48806;DHT22;34625;47.176;27.548;2022-09-27T17:16:46;26.20;55.30
48806;DHT22;34625;47.176;27.548;2022-09-27T17:19:15;26.20;55.30
48806;DHT22;34625;47.176;27.548;2022-09-27T17:21:44;26.20;56.30
48806;DHT22;34625;47.176;27.548;2022-09-27T17:24:10;26.30;57.40
48806;DHT22;34625;47.176;27.548;2022-09-27T17:26:37;26.30;56.70
48806;DHT22;34625;47.176;27.548;2022-09-27T17:29:03;26.30;56.10
48806;DHT22;34625;47.176;27.548;2022-09-27T17:31:29;26.30;56.90
48806;DHT22;34625;47.176;27.548;2022-09-27T17:33:58;26.40;57.00
48806;DHT22;34625;47.176;27.548;2022-09-27T17:36:30;26.20;57.10
48806;DHT22;34625;47.176;27.548;2022-09-27T17:38:58;26.40;57.40
48806;DHT22;34625;47.176;27.548;2022-09-27T17:41:25;26.30;57.70
48806;DHT22;34625;47.176;27.548;2022-09-27T17:43:56;26.40;57.80
48806;DHT22;34625;47.176;27.548;2022-09-27T17:46:28;26.30;57.80
48806;DHT22;34625;47.176;27.548;2022-09-27T17:48:54;26.20;57.60
48806;DHT22;34625;47.176;27.548;2022-09-27T17:51:41;26.30;57.40
48806;DHT22;34625;47.176;27.548;2022-09-27T17:54:09;26.30;57.10
48806;DHT22;34625;47.176;27.548;2022-09-27T17:56:36;26.30;56.90
48806;DHT22;34625;47.176;27.548;2022-09-27T17:59:03;26.20;56.70
48806;DHT22;34625;47.176;27.548;2022-09-27T18:01:29;26.30;56.40
48806;DHT22;34625;47.176;27.548;2022-09-27T18:03:56;26.20;56.40
48806;DHT22;34625;47.176;27.548;2022-09-27T18:06:23;26.20;56.30
48806;DHT22;34625;47.176;27.548;2022-09-27T18:08:52;26.20;57.80
48806;DHT22;34625;47.176;27.548;2022-09-27T18:11:20;26.20;58.90
48806;DHT22;34625;47.176;27.548;2022-09-27T18:13:50;26.20;62.60
48806;DHT22;34625;47.176;27.548;2022-09-27T18:16:17;26.20;60.80
48806;DHT22;34625;47.176;27.548;2022-09-27T18:18:45;26.10;59.70
48806;DHT22;34625;47.176;27.548;2022-09-27T18:21:15;26.10;58.90
48806;DHT22;34625;47.176;27.548;2022-09-27T18:23:43;26.20;58.30
48806;DHT22;34625;47.176;27.548;2022-09-27T18:26:10;26.10;57.80
48806;DHT22;34625;47.176;27.548;2022-09-27T18:28:38;26.10;57.10
48806;DHT22;34625;47.176;27.548;2022-09-27T18:31:09;26.10;57.50
48806;DHT22;34625;47.176;27.548;2022-09-27T18:33:36;26.00;57.60
48806;DHT22;34625;47.176;27.548;2022-09-27T18:36:03;26.00;57.80
48806;DHT22;34625;47.176;27.548;2022-09-27T18:38:29;26.00;57.70
48806;DHT22;34625;47.176;27.548;2022-09-27T18:41:03;26.10;57.40
48806;DHT22;34625;47.176;27.548;2022-09-27T18:43:29;26.20;57.10
48806;DHT22;34625;47.176;27.548;2022-09-27T18:45:55;26.10;58.00
48806;DHT22;34625;47.176;27.548;2022-09-27T18:48:24;26.20;58.40
48806;DHT22;34625;47.176;27.548;2022-09-27T18:50:50;26.20;57.90
48806;DHT22;34625;47.176;27.548;2022-09-27T18:53:16;26.10;58.20
48806;DHT22;34625;47.176;27.548;2022-09-27T18:55:42;26.10;58.20
48806;DHT22;34625;47.176;27.548;2022-09-27T18:58:08;26.10;57.90
48806;DHT22;34625;47.176;27.548;2022-09-27T19:00:38;26.20;57.50
48806;DHT22;34625;47.176;27.548;2022-09-27T19:03:05;26.20;57.60
48806;DHT22;34625;47.176;27.548;2022-09-27T19:05:31;26.10;57.50
48806;DHT22;34625;47.176;27.548;2022-09-27T19:07:57;26.10;57.20
48806;DHT22;34625;47.176;27.548;2022-09-27T19:10:23;26.10;56.90
48806;DHT22;34625;47.176;27.548;2022-09-27T19:12:49;26.20;56.80
48806;DHT22;34625;47.176;27.548;2022-09-27T19:15:15;26.10;56.70
48806;DHT22;34625;47.176;27.548;2022-09-27T19:17:41;26.10;56.60
48806;DHT22;34625;47.176;27.548;2022-09-27T19:20:07;26.20;56.50